• Join FlightAware (Why Join?)
  • Login
  • US Flag 
01:21PM EDT


 

Airport Tracker/Info


-or-


 

Live Flight TrackerFlight Track Log ✈ KAP17 ✈ 07-May-2013 ✈ KBOS - KLEB

Flight Track Log - Related Links

Times and Time Zones

All times are in EDT time to prevent confusion due to time zone crossing. See the KAP17 flight status page for this flight to view local times or setup timezone preferences in your user account.

Time Position Orientation Groundspeed Altitude Reporting Facility
EDT Latitude Longitude Course Direction KTS MPH feet Rate Location/Type
12:32PM 42.3833 -71.0000 324° Northwest 130 150 500  Level KA90
12:32PM 42.4000 -71.0167 324° Northwest 131 151 900 720 Climbing KA90
12:33PM 42.4333 -71.0333 340° North 131 151 1,600 720 Climbing KA90
12:34PM 42.4667 -71.0500 340° North 136 157 2,400 780 Climbing KA90
12:35PM 42.5000 -71.0667 340° North 137 158 3,200 720 Climbing KA90
12:36PM 42.5333 -71.0667 360° North 141 162 3,900 600 Climbing KA90
12:37PM 42.5833 -71.0667 360° North 144 166 4,400 540 Climbing KA90
12:38PM 42.6000 -71.1000 304° West 144 166 5,000 600 Climbing KA90
12:39PM 42.5833 -71.1500 246° West 136 157 5,700 420 Climbing KA90
12:40PM 42.6167 -71.1833 324° Northwest 157 181 5,900 60 Climbing KA90
12:41PM 42.6500 -71.2000 340° North 167 192 5,900  Level KA90
12:42PM 42.7000 -71.2333 334° Northwest 165 190 6,000  Climbing KA90
12:43PM 42.7333 -71.2667 324° Northwest 165 190 6,000  Level KA90
12:44PM 42.7833 -71.3000 334° Northwest 166 191 6,000 -60 Level KA90
12:45PM 42.8167 -71.3333 324° Northwest 168 193 5,900 -60 Descending KA90
12:46PM 42.8500 -71.3667 324° Northwest 169 194 5,900  Level KA90
12:47PM 42.9000 -71.4000 334° Northwest 167 192 5,900  Level KA90
12:48PM 42.9333 -71.4333 324° Northwest 166 191 5,900  Level KA90
12:49PM 42.9667 -71.4833 312° West 167 192 5,900  Level KA90
12:50PM 43.0000 -71.5167 324° Northwest 166 191 5,900  Level KA90
12:51PM 43.0333 -71.5667 312° West 166 191 5,900  Level KA90
12:52PM 43.0667 -71.6167 312° West 166 191 6,000  Climbing KA90
12:53PM 43.1083 -71.6636 321° Northwest 173 199 6,000 -60 Level Boston Center
12:54PM 43.1378 -71.7003 318° Northwest 168 193 5,900  Descending Boston Center
12:55PM 43.1756 -71.7453 319° Northwest 168 193 6,000  Climbing Boston Center
12:56PM 43.2050 -71.7822 318° Northwest 168 193 6,000  Level Boston Center
12:57PM 43.2428 -71.8331 316° Northwest 168 193 6,000  Level Boston Center
12:58PM 43.2722 -71.8669 320° Northwest 168 193 6,000  Level Boston Center
12:59PM 43.3100 -71.9150 317° Northwest 168 193 6,000 -60 Level Boston Center
01:00PM 43.3433 -71.9575 317° Northwest 174 200 5,900 -120 Descending Boston Center